createdAt,value
2023-10-31T00:00:52.057Z,79.63
2023-10-31T00:03:18.768Z,79.58
2023-10-31T00:05:45.741Z,79.72
2023-10-31T00:08:12.513Z,79.73
2023-10-31T00:10:39.184Z,79.12
2023-10-31T00:13:05.986Z,79.04
2023-10-31T00:15:32.818Z,79.12
2023-10-31T00:17:59.617Z,79.03
2023-10-31T00:20:26.261Z,79.12
2023-10-31T00:22:52.974Z,79.23
2023-10-31T00:25:19.768Z,79.17
2023-10-31T00:27:46.534Z,79.04
2023-10-31T00:30:13.501Z,78.77
2023-10-31T00:32:40.311Z,78.99
2023-10-31T00:35:07.676Z,79.18
2023-10-31T00:37:34.472Z,79.03
2023-10-31T00:40:01.113Z,79.19
2023-10-31T00:42:27.806Z,79.16
2023-10-31T00:44:54.467Z,79.20
2023-10-31T00:47:21.270Z,79.30
2023-10-31T00:49:49.647Z,79.44
2023-10-31T00:52:16.409Z,79.57
2023-10-31T00:54:43.304Z,79.66
2023-10-31T00:57:09.998Z,79.78
2023-10-31T00:59:36.804Z,79.89
2023-10-31T01:02:04.191Z,79.96
2023-10-31T01:04:32.512Z,79.97
2023-10-31T01:06:59.124Z,79.83
2023-10-31T01:09:25.774Z,79.82
2023-10-31T01:11:52.463Z,79.85
2023-10-31T01:14:19.096Z,79.87
2023-10-31T01:16:45.759Z,79.90
2023-10-31T01:19:12.437Z,80.00
2023-10-31T01:21:39.295Z,80.01
2023-10-31T01:24:06.558Z,80.11
2023-10-31T01:26:33.266Z,80.10
2023-10-31T01:28:59.853Z,80.14
2023-10-31T01:31:26.507Z,80.09
2023-10-31T01:33:53.251Z,80.23
2023-10-31T01:36:20.100Z,80.30
2023-10-31T01:38:47.982Z,80.31
2023-10-31T01:41:14.738Z,80.29
2023-10-31T01:43:41.326Z,80.24
2023-10-31T01:46:09.823Z,80.19
2023-10-31T01:48:36.823Z,80.20
2023-10-31T01:51:05.517Z,80.10
2023-10-31T01:53:35.165Z,80.21
2023-10-31T01:56:03.346Z,80.13
2023-10-31T01:58:33.659Z,80.13
2023-10-31T02:01:04.711Z,80.05
2023-10-31T02:03:32.070Z,80.09
2023-10-31T02:05:58.953Z,80.30
2023-10-31T02:08:26.947Z,80.29
2023-10-31T02:10:53.630Z,80.38
2023-10-31T02:13:20.465Z,80.22
2023-10-31T02:15:47.530Z,80.20
2023-10-31T02:18:15.028Z,80.33
2023-10-31T02:20:42.505Z,80.24
2023-10-31T02:23:09.285Z,80.02
2023-10-31T02:25:36.132Z,80.02
2023-10-31T02:28:02.884Z,80.08
2023-10-31T02:30:29.721Z,80.15
2023-10-31T02:32:56.455Z,80.22
2023-10-31T02:35:23.240Z,79.96
2023-10-31T02:37:50.451Z,80.08
2023-10-31T02:40:17.216Z,80.06
2023-10-31T02:42:43.996Z,80.19
2023-10-31T02:45:12.136Z,80.12
2023-10-31T02:47:38.894Z,79.88
2023-10-31T02:50:07.104Z,79.73
2023-10-31T02:52:33.881Z,79.78
2023-10-31T02:55:01.406Z,79.84
2023-10-31T02:57:28.089Z,79.92
2023-10-31T02:59:54.668Z,79.99
2023-10-31T03:02:21.377Z,80.01
2023-10-31T03:04:48.603Z,79.99
2023-10-31T03:07:15.293Z,80.07
2023-10-31T03:09:41.914Z,80.08
2023-10-31T03:12:08.656Z,80.17
2023-10-31T03:14:35.319Z,80.22
2023-10-31T03:17:01.985Z,80.32
2023-10-31T03:19:28.773Z,80.48
2023-10-31T03:21:55.434Z,80.46
2023-10-31T03:24:22.031Z,80.39
2023-10-31T03:26:48.668Z,80.37
2023-10-31T03:29:15.291Z,80.19
2023-10-31T03:31:41.980Z,80.18
2023-10-31T03:34:08.614Z,80.05
2023-10-31T03:36:36.307Z,79.98
2023-10-31T03:39:03.439Z,80.04
2023-10-31T03:41:30.147Z,80.08
2023-10-31T03:43:56.917Z,80.08
2023-10-31T03:46:23.684Z,80.16
2023-10-31T03:48:50.810Z,80.15
2023-10-31T03:51:17.740Z,79.95
2023-10-31T03:53:44.508Z,80.08
2023-10-31T03:56:11.298Z,80.00
2023-10-31T03:58:38.116Z,79.92
2023-10-31T04:01:04.845Z,79.79
2023-10-31T04:03:31.516Z,79.74
2023-10-31T04:05:58.127Z,79.56
2023-10-31T04:08:24.753Z,79.36
2023-10-31T04:10:51.622Z,79.28
2023-10-31T04:13:18.333Z,79.19
2023-10-31T04:15:45.045Z,78.73
2023-10-31T04:18:11.741Z,78.11
2023-10-31T04:20:38.479Z,77.89
2023-10-31T04:23:06.786Z,77.88
2023-10-31T04:25:33.778Z,77.80
2023-10-31T04:28:01.229Z,77.61
2023-10-31T04:30:28.950Z,77.44
2023-10-31T04:32:55.809Z,77.31
2023-10-31T04:35:22.494Z,77.16
2023-10-31T04:37:49.165Z,77.29
2023-10-31T04:40:15.941Z,77.34
2023-10-31T04:42:43.026Z,77.24
2023-10-31T04:45:10.489Z,77.22
2023-10-31T04:47:37.405Z,77.54
2023-10-31T04:50:04.860Z,77.50
2023-10-31T04:52:31.488Z,77.55
2023-10-31T04:54:58.086Z,77.59
2023-10-31T04:57:24.710Z,77.64
2023-10-31T04:59:51.316Z,77.49
2023-10-31T05:02:18.057Z,77.45
2023-10-31T05:04:44.927Z,77.73
2023-10-31T05:07:13.013Z,77.68
2023-10-31T05:12:08.979Z,77.83
2023-10-31T05:14:35.570Z,78.17
2023-10-31T05:17:02.548Z,78.11
2023-10-31T05:19:29.251Z,78.00
2023-10-31T05:21:55.856Z,78.05
2023-10-31T05:24:22.460Z,78.29
2023-10-31T05:26:49.143Z,78.13
2023-10-31T05:29:15.958Z,78.50
2023-10-31T05:31:45.487Z,78.59
2023-10-31T05:34:12.543Z,78.61
2023-10-31T05:36:39.068Z,78.77
2023-10-31T05:39:05.924Z,78.86
2023-10-31T05:41:36.022Z,78.64
2023-10-31T05:44:03.079Z,78.70
2023-10-31T05:46:29.802Z,78.74
2023-10-31T05:48:56.540Z,79.05
2023-10-31T05:51:23.278Z,79.17
2023-10-31T05:53:49.973Z,79.12
2023-10-31T05:56:17.596Z,79.14
2023-10-31T05:58:44.648Z,79.26
2023-10-31T06:01:11.643Z,79.32
2023-10-31T06:03:39.285Z,79.20
2023-10-31T06:06:07.200Z,79.23
2023-10-31T06:08:34.042Z,79.36
2023-10-31T06:11:01.415Z,79.19
2023-10-31T06:13:28.358Z,79.12
2023-10-31T06:16:01.462Z,79.15
2023-10-31T06:18:29.374Z,79.25
2023-10-31T06:20:56.195Z,79.05
2023-10-31T06:23:22.976Z,78.78
2023-10-31T06:25:49.737Z,78.77
2023-10-31T06:28:16.423Z,78.81
2023-10-31T06:30:43.475Z,78.90
2023-10-31T06:33:11.927Z,78.94
2023-10-31T06:35:39.172Z,78.91
2023-10-31T06:38:05.852Z,78.94
2023-10-31T06:40:32.541Z,78.98
2023-10-31T06:43:00.345Z,78.92
2023-10-31T06:45:27.012Z,78.88
2023-10-31T06:47:54.342Z,78.94
2023-10-31T06:50:21.243Z,78.89
2023-10-31T06:52:48.280Z,78.93
2023-10-31T06:55:15.147Z,79.00
2023-10-31T06:57:41.939Z,79.07
2023-10-31T07:00:10.276Z,78.90
2023-10-31T07:02:37.462Z,78.80
2023-10-31T07:05:05.129Z,78.59
2023-10-31T07:07:31.811Z,78.67
2023-10-31T07:09:58.572Z,78.31
2023-10-31T07:12:26.134Z,78.31
2023-10-31T07:14:52.812Z,78.30
2023-10-31T07:17:19.513Z,78.33
2023-10-31T07:19:46.297Z,78.26
2023-10-31T07:22:13.047Z,77.77
2023-10-31T07:24:39.741Z,77.37
2023-10-31T07:27:06.409Z,76.96
2023-10-31T07:29:33.138Z,76.84
2023-10-31T07:31:59.941Z,76.84
2023-10-31T07:34:26.818Z,76.94
2023-10-31T07:36:53.680Z,76.82
2023-10-31T07:39:20.484Z,76.17
2023-10-31T07:41:47.113Z,75.99
2023-10-31T07:44:14.519Z,75.28
2023-10-31T07:46:41.166Z,74.62
2023-10-31T07:49:07.778Z,74.52
2023-10-31T07:51:34.506Z,74.64
2023-10-31T07:54:01.837Z,74.47
2023-10-31T07:56:29.458Z,74.33
2023-10-31T07:58:56.442Z,74.14
2023-10-31T08:01:23.494Z,73.69
2023-10-31T08:03:50.277Z,73.94
2023-10-31T08:06:17.167Z,73.67
2023-10-31T08:08:43.925Z,73.14
2023-10-31T08:11:12.242Z,73.32
2023-10-31T08:13:40.449Z,72.83
2023-10-31T08:16:08.612Z,72.59
2023-10-31T08:18:36.114Z,72.59
2023-10-31T08:21:04.262Z,72.55
2023-10-31T08:23:31.020Z,72.56
2023-10-31T08:25:58.447Z,71.99
2023-10-31T08:28:25.541Z,71.61
2023-10-31T08:30:52.316Z,71.77
2023-10-31T08:33:19.353Z,71.78
2023-10-31T08:35:46.262Z,71.98
2023-10-31T08:38:21.467Z,71.66
2023-10-31T08:40:54.125Z,71.33
2023-10-31T08:43:20.967Z,71.15
2023-10-31T08:45:47.586Z,71.35
2023-10-31T08:48:14.265Z,71.27
2023-10-31T08:50:40.894Z,70.98
2023-10-31T08:53:07.500Z,71.05
2023-10-31T08:55:34.172Z,70.73
2023-10-31T08:58:00.860Z,71.09
2023-10-31T09:00:29.596Z,70.96
2023-10-31T09:02:56.569Z,70.83
2023-10-31T09:05:23.457Z,70.98
2023-10-31T09:07:50.346Z,70.99
2023-10-31T09:10:17.121Z,70.68
2023-10-31T09:12:43.956Z,70.67
2023-10-31T09:15:10.931Z,70.65
2023-10-31T09:17:37.820Z,70.60
2023-10-31T09:20:05.267Z,70.36
2023-10-31T09:22:32.027Z,70.23
2023-10-31T09:24:58.684Z,70.16
2023-10-31T09:27:25.421Z,70.48
2023-10-31T09:29:52.674Z,70.43
2023-10-31T09:32:19.985Z,70.35
2023-10-31T09:34:46.806Z,70.12
2023-10-31T09:37:13.504Z,70.16
2023-10-31T09:39:40.385Z,70.17
2023-10-31T09:42:08.891Z,69.88
2023-10-31T09:44:35.773Z,69.80
2023-10-31T09:47:03.378Z,69.58
2023-10-31T09:49:30.920Z,69.79
2023-10-31T09:51:58.006Z,69.82
2023-10-31T09:54:27.078Z,69.59
2023-10-31T09:56:53.957Z,69.62
2023-10-31T09:59:21.455Z,69.25
2023-10-31T10:01:48.206Z,69.04
2023-10-31T10:04:15.057Z,68.60
2023-10-31T10:07:17.734Z,68.62
2023-10-31T10:09:47.268Z,68.33
2023-10-31T10:12:18.544Z,68.24
2023-10-31T10:14:48.187Z,68.15
2023-10-31T10:17:25.441Z,68.22
2023-10-31T10:20:11.971Z,68.02
2023-10-31T10:22:44.192Z,67.96
2023-10-31T10:25:16.802Z,67.87
2023-10-31T10:27:44.455Z,67.99
2023-10-31T10:30:13.404Z,67.48
2023-10-31T10:32:40.092Z,67.23
2023-10-31T10:35:08.253Z,67.21
2023-10-31T10:37:39.367Z,67.47
2023-10-31T10:40:09.043Z,67.20
2023-10-31T10:42:49.873Z,66.91
2023-10-31T10:45:18.939Z,67.01
2023-10-31T10:47:51.467Z,67.10
2023-10-31T10:50:23.020Z,66.89
2023-10-31T10:53:02.593Z,66.54
2023-10-31T10:55:33.640Z,66.67
2023-10-31T10:58:27.269Z,66.79
2023-10-31T11:00:55.596Z,66.76
2023-10-31T11:03:23.827Z,66.38
2023-10-31T11:05:51.785Z,66.12
2023-10-31T11:08:21.930Z,65.74
2023-10-31T11:10:50.102Z,65.44
2023-10-31T11:13:16.735Z,65.37
2023-10-31T11:15:44.662Z,65.08
2023-10-31T11:18:12.165Z,65.28
2023-10-31T11:20:40.062Z,65.26
2023-10-31T11:23:08.001Z,65.00
2023-10-31T11:25:44.802Z,64.98
2023-10-31T11:28:17.213Z,64.68
2023-10-31T11:30:44.845Z,64.66
2023-10-31T11:33:17.254Z,64.53
2023-10-31T11:35:47.104Z,64.34
2023-10-31T11:38:14.112Z,64.08
2023-10-31T11:40:50.234Z,64.02
2023-10-31T11:43:17.868Z,64.06
2023-10-31T11:45:48.572Z,64.04
2023-10-31T11:48:16.868Z,63.73
2023-10-31T11:50:44.066Z,63.42
2023-10-31T11:53:16.312Z,62.99
2023-10-31T11:55:48.164Z,62.92
2023-10-31T11:58:22.701Z,62.80
2023-10-31T12:00:52.726Z,62.59
2023-10-31T12:03:22.599Z,62.14
2023-10-31T12:06:02.914Z,62.24
2023-10-31T12:08:35.486Z,62.50
2023-10-31T12:11:08.357Z,62.25
2023-10-31T12:13:38.897Z,62.15
2023-10-31T12:16:11.270Z,62.22
2023-10-31T12:18:41.755Z,62.14
2023-10-31T12:21:10.072Z,61.48
2023-10-31T12:23:37.008Z,61.43
2023-10-31T12:26:04.030Z,61.08
2023-10-31T12:28:30.724Z,61.58
2023-10-31T12:30:58.823Z,61.80
2023-10-31T12:33:29.365Z,61.38
2023-10-31T12:36:01.286Z,61.19
2023-10-31T12:38:29.357Z,61.12
2023-10-31T12:40:58.510Z,60.70
2023-10-31T12:43:26.587Z,61.24
2023-10-31T12:45:53.781Z,60.96
2023-10-31T12:48:26.554Z,60.89
2023-10-31T12:51:09.524Z,60.75
2023-10-31T12:53:36.362Z,60.99
2023-10-31T12:56:04.161Z,61.54
2023-10-31T12:58:31.083Z,61.86
2023-10-31T13:00:57.863Z,62.23
2023-10-31T13:03:24.752Z,62.46
2023-10-31T13:05:52.114Z,62.63
2023-10-31T13:08:18.788Z,62.87
2023-10-31T13:10:45.616Z,63.31
2023-10-31T13:13:13.953Z,63.80
2023-10-31T13:15:41.051Z,64.00
2023-10-31T13:18:08.394Z,64.38
2023-10-31T13:20:35.240Z,65.37
2023-10-31T13:23:04.433Z,65.59
2023-10-31T13:25:32.753Z,65.25
2023-10-31T13:27:59.667Z,65.80
2023-10-31T13:30:26.761Z,65.76
2023-10-31T13:32:54.387Z,65.55
2023-10-31T13:35:21.544Z,65.78
2023-10-31T13:37:48.477Z,66.12
2023-10-31T13:40:15.488Z,66.55
2023-10-31T13:42:42.143Z,66.61
2023-10-31T13:45:09.430Z,66.76
2023-10-31T13:47:36.250Z,66.99
2023-10-31T13:50:03.475Z,67.22
2023-10-31T13:52:30.335Z,67.49
2023-10-31T13:54:57.094Z,67.79
2023-10-31T13:57:23.781Z,67.95
2023-10-31T13:59:52.268Z,67.91
2023-10-31T14:02:19.453Z,67.92
2023-10-31T14:04:46.549Z,67.80
2023-10-31T14:07:25.267Z,67.83
2023-10-31T14:09:54.310Z,67.81
2023-10-31T14:12:20.910Z,67.68
2023-10-31T14:14:49.108Z,67.48
2023-10-31T14:19:44.930Z,67.26
2023-10-31T14:22:15.106Z,67.19
2023-10-31T14:24:42.004Z,66.95
2023-10-31T14:27:08.701Z,67.04
2023-10-31T14:29:35.965Z,66.99
2023-10-31T14:32:10.333Z,67.12
2023-10-31T14:34:37.075Z,67.30
2023-10-31T14:37:04.915Z,67.41
2023-10-31T14:39:31.636Z,67.62
2023-10-31T14:41:58.490Z,67.91
2023-10-31T14:44:25.217Z,68.08
2023-10-31T14:46:51.932Z,68.20
2023-10-31T14:49:18.755Z,68.44
2023-10-31T14:51:45.507Z,68.59
2023-10-31T14:54:12.154Z,68.71
2023-10-31T14:56:38.980Z,68.95
2023-10-31T14:59:05.879Z,69.15
2023-10-31T15:01:32.758Z,69.28
2023-10-31T15:03:59.450Z,69.30
2023-10-31T15:06:26.550Z,69.31
2023-10-31T15:08:53.328Z,69.18
2023-10-31T15:11:20.040Z,69.13
2023-10-31T15:13:46.672Z,69.21
2023-10-31T15:16:13.372Z,69.34
2023-10-31T15:18:41.677Z,69.44
2023-10-31T15:21:09.446Z,69.50
2023-10-31T15:23:38.167Z,69.52
2023-10-31T15:26:05.597Z,69.54
2023-10-31T15:28:32.294Z,69.64
2023-10-31T15:30:59.120Z,69.57
2023-10-31T15:33:25.784Z,69.44
2023-10-31T15:35:52.570Z,69.46
2023-10-31T15:38:19.579Z,69.40
2023-10-31T15:40:46.385Z,69.31
2023-10-31T15:43:13.724Z,69.34
2023-10-31T15:45:42.010Z,69.57
2023-10-31T15:48:09.568Z,69.59
2023-10-31T15:50:36.459Z,69.52
2023-10-31T15:53:03.622Z,69.56
2023-10-31T15:55:30.333Z,69.68
2023-10-31T15:57:56.991Z,69.75
2023-10-31T16:00:23.645Z,69.80
2023-10-31T16:02:50.396Z,69.73
2023-10-31T16:05:17.273Z,69.87
2023-10-31T16:07:43.964Z,69.95
2023-10-31T16:10:11.183Z,69.96
2023-10-31T16:12:37.909Z,69.83
2023-10-31T16:15:05.583Z,69.83
2023-10-31T16:17:32.492Z,69.82
2023-10-31T16:19:59.080Z,69.91
2023-10-31T16:22:25.715Z,69.96
2023-10-31T16:24:52.644Z,70.04
2023-10-31T16:27:19.470Z,70.14
2023-10-31T16:29:46.109Z,70.25
2023-10-31T16:32:14.665Z,70.30
2023-10-31T16:34:44.775Z,70.27
2023-10-31T16:37:11.635Z,70.33
2023-10-31T16:39:38.289Z,70.42
2023-10-31T16:42:05.352Z,70.52
2023-10-31T16:44:32.116Z,70.51
2023-10-31T16:47:01.430Z,70.62
2023-10-31T16:49:28.493Z,70.70
2023-10-31T16:51:55.700Z,70.69
2023-10-31T16:54:22.613Z,70.76
2023-10-31T16:56:49.234Z,70.85
2023-10-31T16:59:16.086Z,70.91
2023-10-31T17:01:42.899Z,70.99
2023-10-31T17:04:09.824Z,71.02
2023-10-31T17:06:36.602Z,71.15
2023-10-31T17:09:03.748Z,71.23
2023-10-31T17:11:30.629Z,71.23
2023-10-31T17:13:57.261Z,71.21
2023-10-31T17:16:24.181Z,71.16
2023-10-31T17:18:51.311Z,71.17
2023-10-31T17:21:18.057Z,71.20
2023-10-31T17:23:46.215Z,71.26
2023-10-31T17:26:13.155Z,71.30
2023-10-31T17:28:40.536Z,71.20
2023-10-31T17:31:08.671Z,71.26
2023-10-31T17:33:35.639Z,71.23
2023-10-31T17:36:02.399Z,71.20
2023-10-31T17:38:29.170Z,71.24
2023-10-31T17:40:57.619Z,71.24
2023-10-31T17:43:24.409Z,71.32
2023-10-31T17:45:51.275Z,71.51
2023-10-31T17:48:19.122Z,71.70
2023-10-31T17:50:46.867Z,71.98
2023-10-31T17:53:13.960Z,72.34
2023-10-31T17:55:42.433Z,72.68
2023-10-31T17:58:10.032Z,72.87
2023-10-31T18:00:36.619Z,73.01
2023-10-31T18:03:03.833Z,73.20
2023-10-31T18:05:31.340Z,73.30
2023-10-31T18:07:57.993Z,73.32
2023-10-31T18:10:24.740Z,73.35
2023-10-31T18:12:52.534Z,73.42
2023-10-31T18:15:20.676Z,73.57
2023-10-31T18:17:47.550Z,73.72
2023-10-31T18:20:14.508Z,73.87
2023-10-31T18:22:43.958Z,74.08
2023-10-31T18:25:11.944Z,74.13
2023-10-31T18:27:38.624Z,74.30
2023-10-31T18:30:07.873Z,74.48
2023-10-31T18:32:34.957Z,74.57
2023-10-31T18:35:02.073Z,74.77
2023-10-31T18:37:30.823Z,74.84
2023-10-31T18:39:58.406Z,75.01
2023-10-31T18:42:25.493Z,75.03
2023-10-31T18:44:55.096Z,75.12
2023-10-31T18:47:24.962Z,75.19
2023-10-31T18:49:52.219Z,75.34
2023-10-31T18:52:19.450Z,75.37
2023-10-31T18:54:46.216Z,75.36
2023-10-31T18:57:12.919Z,75.39
2023-10-31T18:59:39.682Z,75.31
2023-10-31T19:02:06.680Z,75.24
2023-10-31T19:04:33.773Z,75.20
2023-10-31T19:07:00.618Z,75.21
2023-10-31T19:09:27.322Z,75.22
2023-10-31T19:11:54.537Z,75.23
2023-10-31T19:14:22.022Z,75.20
2023-10-31T19:16:48.756Z,75.30
2023-10-31T19:19:15.435Z,75.35
2023-10-31T19:21:42.139Z,75.26
2023-10-31T19:24:09.418Z,75.25
2023-10-31T19:26:36.162Z,75.24
2023-10-31T19:29:02.943Z,75.17
2023-10-31T19:31:29.894Z,75.10
2023-10-31T19:33:57.293Z,75.09
2023-10-31T19:36:27.343Z,75.03
2023-10-31T19:38:55.477Z,75.00
2023-10-31T19:41:23.480Z,74.96
2023-10-31T19:43:50.984Z,75.00
2023-10-31T19:46:18.193Z,75.05
2023-10-31T19:48:45.086Z,75.10
2023-10-31T19:51:16.725Z,75.17
2023-10-31T19:53:43.814Z,75.10
2023-10-31T19:56:20.379Z,75.12
2023-10-31T19:58:48.474Z,75.07
2023-10-31T20:01:15.557Z,74.99
2023-10-31T20:03:42.769Z,75.04
2023-10-31T20:06:09.777Z,75.09
2023-10-31T20:08:37.674Z,75.11
2023-10-31T20:11:05.889Z,75.16
2023-10-31T20:13:32.844Z,75.20
2023-10-31T20:15:59.632Z,75.27
2023-10-31T20:18:27.794Z,75.36
2023-10-31T20:20:55.706Z,75.35
2023-10-31T20:23:23.522Z,75.26
2023-10-31T20:25:52.671Z,75.19
2023-10-31T20:28:20.318Z,75.09
2023-10-31T20:30:47.729Z,74.96
2023-10-31T20:33:15.136Z,74.98
2023-10-31T20:35:42.354Z,74.87
2023-10-31T20:38:09.106Z,74.75
2023-10-31T20:40:36.499Z,74.60
2023-10-31T20:43:03.676Z,74.53
2023-10-31T20:45:30.607Z,74.40
2023-10-31T20:47:57.923Z,74.30
2023-10-31T20:50:26.836Z,74.15
2023-10-31T20:52:56.618Z,74.01
2023-10-31T20:55:23.553Z,73.95
2023-10-31T20:57:51.717Z,73.80
2023-10-31T21:00:19.088Z,73.71
2023-10-31T21:02:46.791Z,73.68
2023-10-31T21:05:14.076Z,73.60
2023-10-31T21:07:41.785Z,73.60
2023-10-31T21:10:08.748Z,73.56
2023-10-31T21:12:36.296Z,73.86
2023-10-31T21:15:08.247Z,74.21
2023-10-31T21:17:35.433Z,74.32
2023-10-31T21:20:02.266Z,74.43
2023-10-31T21:22:28.967Z,74.58
2023-10-31T21:24:58.331Z,74.76
2023-10-31T21:27:27.344Z,74.78
2023-10-31T21:29:54.242Z,74.80
2023-10-31T21:32:21.223Z,74.80
2023-10-31T21:34:47.899Z,74.77
2023-10-31T21:37:14.502Z,74.75
2023-10-31T21:39:41.221Z,74.68
2023-10-31T21:42:08.146Z,74.58
2023-10-31T21:44:34.797Z,74.51
2023-10-31T21:47:03.014Z,74.56
2023-10-31T21:49:30.523Z,74.44
2023-10-31T21:51:58.393Z,74.38
2023-10-31T21:54:26.433Z,74.30
2023-10-31T21:56:53.139Z,74.28
2023-10-31T21:59:21.644Z,74.26
2023-10-31T22:01:48.415Z,74.21
2023-10-31T22:04:16.149Z,74.27
2023-10-31T22:06:43.302Z,74.27
2023-10-31T22:09:11.463Z,74.20
2023-10-31T22:11:38.628Z,74.12
2023-10-31T22:14:05.305Z,74.10
2023-10-31T22:16:34.017Z,74.10
2023-10-31T22:19:01.598Z,74.21
2023-10-31T22:21:29.209Z,74.19
2023-10-31T22:23:56.030Z,74.10
2023-10-31T22:26:23.161Z,73.99
2023-10-31T22:28:50.218Z,73.91
2023-10-31T22:31:16.913Z,73.83
2023-10-31T22:33:45.328Z,73.78
2023-10-31T22:36:12.836Z,73.71
2023-10-31T22:38:39.937Z,73.67
2023-10-31T22:41:07.764Z,73.67
2023-10-31T22:43:35.039Z,73.55
2023-10-31T22:46:01.672Z,73.40
2023-10-31T22:48:29.862Z,73.38
2023-10-31T22:50:56.704Z,73.30
2023-10-31T22:53:23.418Z,73.14
2023-10-31T22:55:50.171Z,73.00
2023-10-31T22:58:17.891Z,72.93
2023-10-31T23:00:44.573Z,72.84
2023-10-31T23:03:11.415Z,72.81
2023-10-31T23:05:39.942Z,72.91
2023-10-31T23:08:07.582Z,72.71
2023-10-31T23:10:34.509Z,72.73
2023-10-31T23:13:01.360Z,72.71
2023-10-31T23:15:27.999Z,72.47
2023-10-31T23:17:54.864Z,72.42
2023-10-31T23:20:22.716Z,72.33
2023-10-31T23:22:52.873Z,72.31
2023-10-31T23:25:19.941Z,72.23
2023-10-31T23:27:48.235Z,72.20
2023-10-31T23:30:15.606Z,71.95
2023-10-31T23:32:43.305Z,71.87
2023-10-31T23:35:10.260Z,71.78
2023-10-31T23:37:36.981Z,71.77
2023-10-31T23:40:04.828Z,71.80
2023-10-31T23:42:31.602Z,71.58
2023-10-31T23:44:58.287Z,71.50
2023-10-31T23:47:25.199Z,71.29
2023-10-31T23:49:51.991Z,71.31
2023-10-31T23:52:18.667Z,71.36
2023-10-31T23:54:45.402Z,71.35
2023-10-31T23:57:12.040Z,71.40
2023-10-31T23:59:38.687Z,71.44
